Time;durP1;ratioP1;P1;durP2;ratioP2;P2;SDS_P1;SDS_P2;PMS_P1;PMS_P2;Temp;Humidity;BMP_temperature;BMP_pressure;BME280_temperature;BME280_humidity;BME280_pressure;Samples;Min_cycle;Max_cycle;Signal;HPM_P1;HPM_P2
2022/11/17 00:00:22;;;;;;;;;;;8.30;99.90;;;;;;5052934;28;20041;-77
2022/11/17 00:02:48;;;;;;;95.22;49.25;;;8.30;99.90;;;;;;5070058;28;19908;-77
2022/11/17 00:05:13;;;;;;;;;;;8.30;99.90;;;;;;5053770;28;20771;-77
2022/11/17 00:07:39;;;;;;;97.10;48.80;;;8.30;99.90;;;;;;5053667;28;19909;-77
2022/11/17 00:10:05;;;;;;;;;;;8.30;99.90;;;;;;5072940;28;20021;-77
2022/11/17 00:15:15;;;;;;;108.68;52.90;;;8.40;99.90;;;;;;5069265;28;20082;-77
2022/11/17 00:17:41;;;;;;;;;;;8.40;99.90;;;;;;5050509;28;20028;-77
2022/11/17 00:22:52;;;;;;;92.10;46.15;;;8.40;99.90;;;;;;5068159;28;20662;-77
2022/11/17 00:25:18;;;;;;;;;;;8.40;99.90;;;;;;5050270;28;20036;-78
2022/11/17 00:27:43;;;;;;;88.75;48.03;;;8.40;99.90;;;;;;5066947;28;19924;-77
2022/11/17 00:34:03;;;;;;;;;;;8.40;99.90;;;;;;5050257;28;20140;-77
2022/11/17 00:35:49;;;;;;;90.85;47.83;;;8.40;99.90;;;;;;5068173;28;20447;-76
2022/11/17 00:38:15;;;;;;;91.20;46.88;;;8.40;99.90;;;;;;5049124;28;20020;-76
2022/11/17 00:40:40;;;;;;;;;;;8.40;99.90;;;;;;5049959;28;20776;-77
2022/11/17 00:43:06;;;;;;;104.78;49.17;;;8.40;99.90;;;;;;5048962;28;19904;-77
2022/11/17 00:45:31;;;;;;;;;;;8.40;99.90;;;;;;5049606;28;20060;-77
2022/11/17 00:47:57;;;;;;;86.57;43.20;;;8.40;99.90;;;;;;5071370;28;19948;-77
2022/11/17 00:50:23;;;;;;;;;;;8.40;99.90;;;;;;5053645;28;20035;-77
2022/11/17 00:52:48;;;;;;;76.38;40.53;;;8.40;99.90;;;;;;5071294;28;19916;-76
2022/11/17 00:55:14;;;;;;;;;;;8.40;99.90;;;;;;5053802;28;20047;-76
2022/11/17 00:57:39;;;;;;;75.30;37.72;;;8.50;99.90;;;;;;5052454;28;19994;-77
2022/11/17 01:00:05;;;;;;;;;;;8.40;99.90;;;;;;5053747;28;20028;-76
2022/11/17 01:02:31;;;;;;;69.75;38.05;;;8.50;99.90;;;;;;5070754;28;19919;-77
2022/11/17 01:04:56;;;;;;;;;;;8.50;99.90;;;;;;5053596;28;20031;-76
2022/11/17 01:07:22;;;;;;;73.88;39.55;;;8.40;99.90;;;;;;5070976;28;20339;-76
2022/11/17 01:09:47;;;;;;;;;;;8.40;99.90;;;;;;5072439;28;20059;-77
2022/11/17 01:12:13;;;;;;;62.17;32.47;;;8.40;99.90;;;;;;5071294;28;19908;-76
2022/11/17 01:14:39;;;;;;;;;;;8.40;99.90;;;;;;5053496;28;20028;-77
2022/11/17 01:17:04;;;;;;;51.45;30.08;;;8.40;99.90;;;;;;5052790;28;19915;-77
2022/11/17 01:19:30;;;;;;;;;;;8.40;99.90;;;;;;5054083;28;20548;-77
2022/11/17 01:21:55;;;;;;;54.70;30.70;;;8.40;99.90;;;;;;5053765;28;19904;-77
2022/11/17 01:24:21;;;;;;;;;;;8.40;99.90;;;;;;5071836;28;20082;-76
2022/11/17 01:26:48;;;;;;;41.33;23.05;;;8.40;99.90;;;;;;5053184;28;20519;-77
2022/11/17 01:29:17;;;;;;;66.10;37.22;;;8.50;99.90;;;;;;5071675;28;20056;-76
2022/11/17 01:31:47;;;;;;;70.15;35.90;;;8.60;99.90;;;;;;5054050;28;20048;-76
2022/11/17 01:34:13;;;;;;;69.00;38.05;;;8.50;99.90;;;;;;5071946;28;20041;-76
2022/11/17 01:39:26;;;;;;;47.90;24.40;;;8.50;99.90;;;;;;5072429;28;19920;-77
2022/11/17 01:41:53;;;;;;;51.67;25.90;;;8.50;99.90;;;;;;5053715;28;20105;-77
2022/11/17 01:44:53;;;;;;;47.72;24.50;;;8.40;99.90;;;;;;5071333;28;20040;-77
2022/11/17 01:47:25;;;;;;;40.58;23.77;;;8.50;99.90;;;;;;5054544;28;20605;-76
2022/11/17 01:49:57;;;;;;;43.40;24.27;;;8.60;99.90;;;;;;5073270;28;20020;-76
2022/11/17 01:52:24;;;;;;;41.90;22.90;;;8.60;99.90;;;;;;5072044;28;20563;-77
2022/11/17 01:54:52;;;;;;;43.75;23.63;;;8.50;99.90;;;;;;5053898;28;20028;-76
2022/11/17 01:57:34;;;;;;;38.00;21.45;;;8.50;99.90;;;;;;5071077;28;20111;-77
2022/11/17 02:00:06;;;;;;;38.00;21.50;;;8.50;99.90;;;;;;5055441;28;20109;-75
2022/11/17 02:02:33;;;;;;;42.60;23.40;;;8.50;99.90;;;;;;5053455;28;20039;-77
2022/11/17 02:05:08;;;;;;;39.45;20.10;;;8.40;99.90;;;;;;5071347;28;20299;-77
2022/11/17 02:07:36;;;;;;;42.22;20.42;;;8.40;99.90;;;;;;5072119;28;20043;-77
2022/11/17 02:10:04;;;;;;;43.78;24.67;;;8.50;99.90;;;;;;5053596;28;20039;-76
2022/11/17 02:12:31;;;;;;;39.00;21.50;;;8.40;99.90;;;;;;5053203;28;20032;-77
2022/11/17 02:14:57;;;;;;;45.65;23.65;;;8.40;99.90;;;;;;5053970;28;20029;-77
2022/11/17 02:17:34;;;;;;;;;;;8.30;99.90;;;;;;5054582;28;20025;-76
2022/11/17 02:20:06;;;;;;;54.67;27.63;;;8.30;99.90;;;;;;5053486;28;20360;-77
2022/11/17 02:23:21;;;;;;;57.45;27.45;;;8.30;99.90;;;;;;5071408;28;20033;-77
2022/11/17 02:26:18;;;;;;;46.17;22.77;;;8.30;99.90;;;;;;5054712;28;20032;-77
2022/11/17 02:28:49;;;;;;;;;;;8.30;99.90;;;;;;5072917;28;20021;-76
2022/11/17 02:31:45;;;;;;;28.80;17.40;;;8.30;99.90;;;;;;5055252;28;19920;-77
2022/11/17 02:34:36;;;;;;;34.17;18.33;;;8.30;99.90;;;;;;5074638;28;20115;-78
2022/11/17 02:37:39;;;;;;;30.90;16.80;;;8.30;99.90;;;;;;5069691;28;20707;-77
2022/11/17 02:40:31;;;;;;;53.88;23.52;;;8.30;99.90;;;;;;5051697;28;20043;-76
2022/11/17 02:46:04;;;;;;;110.15;36.08;;;8.30;99.90;;;;;;5069625;28;20451;-77
2022/11/17 02:48:35;;;;;;;112.65;37.10;;;8.40;99.90;;;;;;5051463;28;20428;-77
2022/11/17 02:51:03;;;;;;;86.20;29.25;;;8.40;99.90;;;;;;5050972;28;20074;-77
2022/11/17 02:53:30;;;;;;;58.08;23.52;;;8.40;99.90;;;;;;5050617;28;20041;-76
2022/11/17 02:55:59;;;;;;;50.45;19.45;;;8.40;99.90;;;;;;5068721;28;20036;-76
2022/11/17 02:58:25;;;;;;;37.45;17.92;;;8.40;99.90;;;;;;5068449;28;20512;-77
2022/11/17 03:01:05;;;;;;;;;;;8.40;99.90;;;;;;5069466;28;20220;-76
2022/11/17 03:04:08;;;;;;;30.92;15.60;;;8.40;99.90;;;;;;5050797;28;19912;-77
2022/11/17 03:06:53;;;;;;;33.90;16.42;;;8.30;99.90;;;;;;5050707;28;20036;-76
2022/11/17 03:09:22;;;;;;;31.67;16.55;;;8.30;99.90;;;;;;5036204;28;20029;-77
2022/11/17 03:11:52;;;;;;;29.00;17.05;;;8.30;99.90;;;;;;5050742;28;20032;-77
2022/11/17 03:14:40;;;;;;;34.72;18.70;;;8.40;99.90;;;;;;5069132;28;20112;-77
2022/11/17 03:17:17;;;;;;;35.85;20.92;;;8.40;99.90;;;;;;5051264;28;20051;-77
2022/11/17 03:19:46;;;;;;;37.72;21.45;;;8.40;99.90;;;;;;5069081;28;20021;-77
2022/11/17 03:22:36;;;;;;;32.22;20.52;;;8.40;99.90;;;;;;5069278;28;20035;-76
2022/11/17 03:25:05;;;;;;;40.75;22.08;;;8.40;99.90;;;;;;5069340;28;20590;-77
2022/11/17 03:27:36;;;;;;;47.42;24.05;;;8.40;99.90;;;;;;5050777;28;20074;-77
2022/11/17 03:30:06;;;;;;;36.58;19.90;;;8.40;99.90;;;;;;5050417;28;20066;-77
2022/11/17 03:32:39;;;;;;;34.25;19.92;;;8.40;99.90;;;;;;5068743;28;20075;-77
2022/11/17 03:35:19;;;;;;;36.33;21.30;;;8.40;99.90;;;;;;5068658;28;20489;-76
2022/11/17 03:37:49;;;;;;;32.90;19.45;;;8.40;99.90;;;;;;5051658;28;20033;-77
2022/11/17 03:40:19;;;;;;;32.72;19.27;;;8.40;99.90;;;;;;5051126;28;20029;-77
2022/11/17 03:42:51;;;;;;;33.90;20.23;;;8.40;99.90;;;;;;5068588;28;20033;-77
2022/11/17 03:45:45;;;;;;;31.65;18.13;;;8.40;99.90;;;;;;5068946;28;20027;-77
2022/11/17 03:48:21;;;;;;;30.08;18.80;;;8.40;99.90;;;;;;5047975;28;20283;-77
2022/11/17 03:51:14;;;;;;;30.52;19.05;;;8.40;99.90;;;;;;5068899;28;20020;-77
2022/11/17 03:53:41;;;;;;;28.75;17.55;;;8.40;99.90;;;;;;5050117;28;20408;-76
2022/11/17 03:56:06;;;;;;;27.27;16.88;;;8.40;99.90;;;;;;5050374;28;20032;-77
2022/11/17 03:58:34;;;;;;;;;;;8.40;99.90;;;;;;5051096;28;20078;-77
2022/11/17 04:01:02;;;;;;;36.33;20.60;;;8.40;99.90;;;;;;5067777;28;19904;-76
2022/11/17 04:03:30;;;;;;;34.40;21.23;;;8.50;99.90;;;;;;5050175;28;20028;-77
2022/11/17 04:05:56;;;;;;;35.42;21.33;;;8.40;99.90;;;;;;5050251;28;20580;-76
2022/11/17 04:08:24;;;;;;;;;;;8.40;99.90;;;;;;5051023;28;20127;-77
2022/11/17 04:16:18;;;;;;;33.17;21.20;;;8.30;99.90;;;;;;5069823;28;20035;-77
2022/11/17 04:18:44;;;;;;;;;;;8.30;99.90;;;;;;5070157;28;20021;-77
2022/11/17 04:21:09;;;;;;;31.30;20.52;;;8.20;99.90;;;;;;5069865;28;20396;-77
2022/11/17 04:23:35;;;;;;;;;;;8.20;99.90;;;;;;5052947;28;20033;-77
2022/11/17 04:28:48;;;;;;;34.63;18.40;;;8.00;99.90;;;;;;5070559;28;20106;-77
2022/11/17 04:31:22;;;;;;;27.88;17.10;;;8.00;99.90;;;;;;5053160;28;20052;-78
2022/11/17 04:33:49;;;;;;;26.20;17.83;;;8.00;99.90;;;;;;5052884;28;20112;-77
2022/11/17 04:36:17;;;;;;;23.65;15.48;;;8.00;99.90;;;;;;5051539;28;20044;-76
2022/11/17 04:38:49;;;;;;;24.30;15.10;;;8.00;99.90;;;;;;5052725;28;20044;-76
2022/11/17 04:44:01;;;;;;;20.63;14.73;;;8.00;99.90;;;;;;5071710;28;20036;-77
2022/11/17 04:46:29;;;;;;;20.42;12.70;;;8.00;99.90;;;;;;5070979;28;20035;-77
2022/11/17 04:48:55;;;;;;;17.65;13.20;;;8.10;99.90;;;;;;5071541;28;20044;-77
2022/11/17 04:51:22;;;;;;;21.95;13.85;;;8.10;99.90;;;;;;5072770;28;20025;-76
2022/11/17 04:53:48;;;;;;;20.27;14.85;;;8.20;99.90;;;;;;5054861;28;20048;-77
2022/11/17 04:56:13;;;;;;;;;;;8.20;99.90;;;;;;5071471;28;20470;-77
2022/11/17 04:58:39;;;;;;;18.55;12.57;;;8.20;99.90;;;;;;5050510;28;19999;-77
2022/11/17 05:01:11;;;;;;;17.27;12.75;;;8.30;99.90;;;;;;5050163;28;20101;-77
2022/11/17 05:04:04;;;;;;;22.60;14.88;;;8.30;99.90;;;;;;5049868;28;20031;-77
2022/11/17 05:06:41;;;;;;;33.13;19.48;;;8.20;99.90;;;;;;5040813;28;20421;-76
2022/11/17 05:09:15;;;;;;;29.48;17.95;;;8.20;99.90;;;;;;5048855;28;20028;-76
2022/11/17 05:14:27;;;;;;;25.83;17.38;;;8.20;99.90;;;;;;5067496;28;20098;-76
2022/11/17 05:17:07;;;;;;;23.88;16.52;;;8.10;99.90;;;;;;5048916;28;20408;-75
2022/11/17 05:19:38;;;;;;;24.85;17.38;;;8.10;99.90;;;;;;5066236;28;20028;-76
2022/11/17 05:23:52;;;;;;;25.58;17.80;;;8.10;99.90;;;;;;5049439;28;20448;-75
2022/11/17 05:24:51;;;;;;;25.27;16.33;;;8.10;99.90;;;;;;5068697;28;20029;-76
2022/11/17 05:27:16;;;;;;;;;;;8.30;99.90;;;;;;5050178;28;20115;-76
2022/11/17 05:29:42;;;;;;;24.95;17.40;;;8.30;99.90;;;;;;5068094;28;19927;-77
2022/11/17 05:32:08;;;;;;;;;;;8.30;99.90;;;;;;5050267;28;20082;-76
2022/11/17 05:34:33;;;;;;;26.08;16.33;;;8.30;99.90;;;;;;5071278;28;19913;-77
2022/11/17 05:36:59;;;;;;;;;;;8.30;99.90;;;;;;5072099;28;20497;-76
2022/11/17 05:39:24;;;;;;;22.23;14.43;;;8.30;99.90;;;;;;5052850;28;19904;-75
2022/11/17 05:41:50;;;;;;;;;;;8.30;99.90;;;;;;5070936;28;20094;-77
2022/11/17 05:44:15;;;;;;;24.23;15.05;;;8.30;99.90;;;;;;5052495;28;20257;-76
2022/11/17 05:46:41;;;;;;;;;;;8.20;99.90;;;;;;5052877;28;20115;-78
2022/11/17 05:49:06;;;;;;;22.27;16.25;;;8.20;99.90;;;;;;5052107;28;19981;-77
2022/11/17 05:51:32;;;;;;;;;;;8.10;99.90;;;;;;5053222;28;20036;-77
2022/11/17 05:53:58;;;;;;;21.85;15.50;;;8.10;99.90;;;;;;5070625;28;19962;-77
2022/11/17 05:56:23;;;;;;;;;;;8.00;99.90;;;;;;5053213;28;20017;-76
2022/11/17 05:58:53;;;;;;;23.63;15.55;;;8.00;99.90;;;;;;5052903;28;20344;-77
2022/11/17 06:01:19;;;;;;;23.80;15.60;;;7.90;99.90;;;;;;5053440;28;20033;-77
2022/11/17 06:03:52;;;;;;;30.67;18.95;;;7.90;99.90;;;;;;5071229;28;20025;-76
2022/11/17 06:06:18;;;;;;;28.80;19.90;;;7.80;99.90;;;;;;5070350;28;20024;-74
2022/11/17 06:08:44;;;;;;;;;;;7.70;99.90;;;;;;5071394;28;20028;-75
2022/11/17 06:11:10;;;;;;;28.60;18.65;;;7.60;99.90;;;;;;5070435;28;19973;-74
2022/11/17 06:13:35;;;;;;;;;;;7.60;99.90;;;;;;5071872;28;20576;-77
2022/11/17 06:16:05;;;;;;;27.55;17.42;;;7.50;99.90;;;;;;5072566;28;19908;-77
2022/11/17 06:18:35;;;;;;;29.10;19.00;;;7.40;99.90;;;;;;5054508;28;20031;-76
2022/11/17 06:21:01;;;;;;;33.60;18.92;;;7.30;99.90;;;;;;5072801;28;20546;-77
2022/11/17 06:23:28;;;;;;;;;;;7.30;99.90;;;;;;5072968;28;20036;-77
2022/11/17 06:25:54;;;;;;;32.80;18.70;;;7.30;99.90;;;;;;5071861;28;19909;-77
2022/11/17 06:28:22;;;;;;;35.20;21.50;;;7.20;99.90;;;;;;5073637;28;20025;-76
2022/11/17 06:30:49;;;;;;;53.55;30.58;;;7.20;99.90;;;;;;5053911;28;20489;-76
2022/11/17 06:33:18;;;;;;;52.83;30.17;;;7.20;99.90;;;;;;5054841;28;20774;-77
2022/11/17 06:35:44;;;;;;;45.22;25.83;;;7.10;99.90;;;;;;5073115;28;20044;-77
2022/11/17 06:38:09;;;;;;;40.45;25.33;;;7.10;99.90;;;;;;5054464;28;20074;-77
2022/11/17 06:40:35;;;;;;;;;;;7.10;99.90;;;;;;5073170;28;20024;-77
2022/11/17 06:43:10;;;;;;;55.65;34.15;;;7.20;99.90;;;;;;5072511;28;20003;-76
2022/11/17 06:45:41;;;;;;;48.28;29.83;;;7.20;99.90;;;;;;5053994;28;20500;-77
2022/11/17 06:48:08;;;;;;;43.58;27.02;;;7.40;99.90;;;;;;5071843;28;20039;-77
2022/11/17 06:50:34;;;;;;;38.08;25.38;;;7.50;99.90;;;;;;5054825;28;20115;-76
2022/11/17 06:53:03;;;;;;;;;;;7.60;99.90;;;;;;5073048;28;20127;-78
2022/11/17 06:55:28;;;;;;;30.33;19.98;;;7.70;99.90;;;;;;5071398;28;19904;-77
2022/11/17 06:57:59;;;;;;;;;;;8.10;99.90;;;;;;5071814;28;20062;-78
2022/11/17 07:00:25;;;;;;;31.35;18.48;;;8.40;99.90;;;;;;5052360;28;19908;-78
2022/11/17 07:02:50;;;;;;;;;;;8.70;99.90;;;;;;5052816;28;20445;-77
2022/11/17 07:05:16;;;;;;;39.28;24.75;;;9.00;99.90;;;;;;5069559;28;19908;-77
2022/11/17 07:07:41;;;;;;;;;;;9.40;99.90;;;;;;5070856;28;20028;-77
2022/11/17 07:10:08;;;;;;;35.88;23.20;;;9.70;99.90;;;;;;5069422;28;20289;-76
2022/11/17 07:12:34;;;;;;;27.23;19.20;;;10.00;99.90;;;;;;5052053;28;20036;-77
2022/11/17 07:14:59;;;;;;;;;;;10.30;99.90;;;;;;5050922;28;20056;-77
2022/11/17 07:17:25;;;;;;;29.58;20.25;;;10.60;99.90;;;;;;5049675;28;20381;-78
2022/11/17 07:19:52;;;;;;;;;;;10.70;99.90;;;;;;5066940;28;20678;-76
2022/11/17 07:22:17;;;;;;;24.85;17.70;;;10.80;99.90;;;;;;5067074;28;19904;-76
2022/11/17 07:24:43;;;;;;;;;;;10.90;99.90;;;;;;5066381;28;20378;-77
2022/11/17 07:27:09;;;;;;;41.05;23.42;;;11.10;99.90;;;;;;5067128;28;19904;-78
2022/11/17 07:29:35;;;;;;;;;;;11.30;99.90;;;;;;5048944;28;20024;-76
2022/11/17 07:32:00;;;;;;;27.83;15.75;;;11.40;99.90;;;;;;5048816;28;19915;-77
2022/11/17 07:34:26;;;;;;;;;;;11.50;99.90;;;;;;5049501;28;20081;-77
2022/11/17 07:36:51;;;;;;;22.20;15.15;;;11.30;99.90;;;;;;5048160;28;19913;-77
2022/11/17 07:39:17;;;;;;;;;;;11.20;99.90;;;;;;5048860;28;20374;-77
2022/11/17 07:41:43;;;;;;;23.58;14.32;;;11.00;99.90;;;;;;5066437;28;19909;-78
2022/11/17 07:44:10;;;;;;;26.13;13.57;;;10.90;99.90;;;;;;5066790;28;20152;-77
2022/11/17 07:46:36;;;;;;;20.65;14.32;;;10.80;99.90;;;;;;5048072;28;20024;-76
2022/11/17 07:49:01;;;;;;;;;;;10.70;99.90;;;;;;5048809;28;20839;-77
2022/11/17 07:51:27;;;;;;;26.15;18.23;;;11.00;99.90;;;;;;5066383;28;19904;-75
2022/11/17 07:53:54;;;;;;;;;;;11.40;99.90;;;;;;5048192;28;20040;-78
2022/11/17 07:56:20;;;;;;;;;;;11.70;99.90;;;;;;5048703;28;19916;-78
2022/11/17 07:58:45;;;;;;;22.30;15.88;;;12.10;99.90;;;;;;5065891;28;19905;-76
2022/11/17 08:01:16;;;;;;;28.92;20.17;;;12.40;99.90;;;;;;5066695;28;20071;-77
2022/11/17 08:03:42;;;;;;;23.27;17.05;;;12.60;99.90;;;;;;5048015;28;20032;-77
2022/11/17 08:06:09;;;;;;;23.02;16.58;;;12.90;99.90;;;;;;5048752;28;20024;-77
2022/11/17 08:08:36;;;;;;;22.70;15.02;;;13.10;99.90;;;;;;5048112;28;20032;-78
2022/11/17 08:11:06;;;;;;;19.20;14.52;;;13.20;99.90;;;;;;5066451;28;20032;-78
2022/11/17 08:13:32;;;;;;;23.20;16.30;;;13.20;99.90;;;;;;5048372;28;20037;-78
2022/11/17 08:15:59;;;;;;;22.92;16.92;;;13.20;99.90;;;;;;5047704;28;20056;-77
2022/11/17 08:18:25;;;;;;;24.92;17.17;;;13.30;99.90;;;;;;5047920;28;20021;-77
2022/11/17 08:20:51;;;;;;;23.65;16.33;;;13.60;99.90;;;;;;5048196;28;20221;-78
2022/11/17 08:23:17;;;;;;;22.02;14.10;;;13.60;99.90;;;;;;5048052;28;20115;-77
2022/11/17 08:25:43;;;;;;;21.50;15.02;;;13.40;99.90;;;;;;5066447;28;20033;-79
2022/11/17 08:28:09;;;;;;;18.80;14.88;;;13.20;99.90;;;;;;5065972;28;20024;-78
2022/11/17 08:30:35;;;;;;;;;;;13.10;99.90;;;;;;5066512;28;20103;-77
2022/11/17 08:33:01;;;;;;;27.38;14.75;;;13.00;99.90;;;;;;5066311;28;19970;-78
2022/11/17 08:35:27;;;;;;;19.88;14.88;;;12.80;99.90;;;;;;5048129;28;20049;-78
2022/11/17 08:37:53;;;;;;;21.92;14.93;;;12.80;99.90;;;;;;5048019;28;20040;-76
2022/11/17 08:40:19;;;;;;;;;;;12.60;99.90;;;;;;5048656;28;20017;-78
2022/11/17 08:42:45;;;;;;;19.90;14.95;;;12.40;99.90;;;;;;5047632;28;20223;-77
2022/11/17 08:45:11;;;;;;;20.83;15.10;;;12.40;99.90;;;;;;5048162;28;20040;-79
2022/11/17 08:47:37;;;;;;;22.20;14.52;;;12.40;99.90;;;;;;5066166;28;20095;-79
2022/11/17 08:50:04;;;;;;;;;;;12.30;99.90;;;;;;5048762;28;20556;-78
2022/11/17 08:52:29;;;;;;;19.73;15.10;;;12.20;99.90;;;;;;5047870;28;19962;-77
2022/11/17 08:54:55;;;;;;;20.60;14.00;;;12.20;99.90;;;;;;5047897;28;20063;-76
2022/11/17 08:57:21;;;;;;;;;;;12.20;99.90;;;;;;5066102;28;20032;-78
2022/11/17 08:59:47;;;;;;;21.13;13.82;;;12.20;99.90;;;;;;5047908;28;19905;-76
2022/11/17 09:02:13;;;;;;;24.80;15.77;;;12.10;99.90;;;;;;5065614;28;20040;-78
2022/11/17 09:04:39;;;;;;;21.65;15.35;;;12.10;99.90;;;;;;5065786;28;20488;-77
2022/11/17 09:07:05;;;;;;;;;;;12.10;99.90;;;;;;5048445;28;20039;-77
2022/11/17 09:09:31;;;;;;;27.95;16.33;;;12.20;99.90;;;;;;5050178;28;19908;-76
2022/11/17 09:11:58;;;;;;;22.77;15.45;;;12.30;99.90;;;;;;5069821;28;20025;-78
2022/11/17 09:14:24;;;;;;;18.88;13.07;;;12.40;99.90;;;;;;5051560;28;20037;-78
2022/11/17 09:16:50;;;;;;;20.02;14.10;;;12.50;99.90;;;;;;5069211;28;20028;-76
2022/11/17 09:19:16;;;;;;;19.92;13.52;;;12.50;99.90;;;;;;5051417;28;20101;-78
2022/11/17 09:21:42;;;;;;;;;;;12.40;99.90;;;;;;5052179;28;20587;-77
2022/11/17 09:24:08;;;;;;;20.30;12.57;;;12.30;99.90;;;;;;5066685;28;20407;-77
2022/11/17 09:26:34;;;;;;;18.75;12.80;;;12.20;99.90;;;;;;5051281;28;20526;-77
2022/11/17 09:29:03;;;;;;;16.70;12.32;;;12.30;99.90;;;;;;5051721;28;20413;-77
2022/11/17 09:31:29;;;;;;;17.15;11.73;;;12.40;99.90;;;;;;5069310;28;20087;-78
2022/11/17 09:33:55;;;;;;;17.90;12.90;;;12.70;99.90;;;;;;5050685;28;20623;-77
2022/11/17 09:36:21;;;;;;;;;;;13.00;99.90;;;;;;5052619;28;20036;-77
2022/11/17 09:38:46;;;;;;;33.22;13.18;;;13.20;99.90;;;;;;5069739;28;20372;-79
2022/11/17 09:41:15;;;;;;;15.50;11.18;;;13.30;99.90;;;;;;5068789;28;20032;-77
2022/11/17 09:44:11;;;;;;;15.48;12.15;;;13.50;99.90;;;;;;5068865;28;20029;-78
2022/11/17 09:46:45;;;;;;;14.23;10.38;;;13.70;99.90;;;;;;5050201;28;20051;-78
2022/11/17 09:49:17;;;;;;;17.05;11.50;;;13.70;99.90;;;;;;5068810;28;20136;-78
2022/11/17 09:51:46;;;;;;;12.85;10.07;;;13.70;99.90;;;;;;5068760;28;20107;-77
2022/11/17 09:54:25;;;;;;;14.30;10.73;;;13.70;99.90;;;;;;5067991;28;20028;-79
2022/11/17 09:56:52;;;;;;;15.20;11.48;;;13.70;99.90;;;;;;5068741;28;20115;-77
2022/11/17 09:59:20;;;;;;;15.77;11.40;;;13.70;99.90;;;;;;5050497;28;20515;-77
2022/11/17 10:01:46;;;;;;;16.75;11.82;;;13.70;99.90;;;;;;5051237;28;20516;-78
2022/11/17 10:04:13;;;;;;;;;;;13.70;99.90;;;;;;5069198;28;20029;-79
2022/11/17 10:06:41;;;;;;;15.50;11.48;;;13.60;99.90;;;;;;5068093;28;19904;-78
2022/11/17 10:09:24;;;;;;;13.93;10.18;;;13.60;99.90;;;;;;5068538;28;20029;-75
2022/11/17 10:11:51;;;;;;;16.13;10.35;;;13.60;99.90;;;;;;5050165;28;20032;-77
2022/11/17 10:14:20;;;;;;;15.50;10.93;;;13.60;99.90;;;;;;5050628;28;20135;-79
2022/11/17 10:16:57;;;;;;;14.15;10.75;;;13.70;99.90;;;;;;5049959;28;20032;-77
2022/11/17 10:19:28;;;;;;;14.25;10.45;;;13.70;99.90;;;;;;5050040;28;20044;-80
2022/11/17 10:22:00;;;;;;;13.00;9.43;;;13.80;99.90;;;;;;5050010;28;20032;-78
2022/11/17 10:24:33;;;;;;;12.63;9.60;;;13.90;99.90;;;;;;5050525;28;20040;-77
2022/11/17 10:27:01;;;;;;;12.73;9.52;;;13.90;99.90;;;;;;5050323;28;20029;-77
2022/11/17 10:29:26;;;;;;;12.45;9.82;;;14.00;99.90;;;;;;5067962;28;20536;-78
2022/11/17 10:31:52;;;;;;;12.98;9.10;;;14.10;99.90;;;;;;5049819;28;20105;-78
2022/11/17 10:34:32;;;;;;;14.25;10.00;;;14.20;99.90;;;;;;5049383;28;20408;-75
2022/11/17 10:37:20;;;;;;;12.40;9.45;;;14.00;99.90;;;;;;5049121;28;20082;-76
2022/11/17 10:39:45;;;;;;;15.45;9.73;;;13.80;99.90;;;;;;5049933;28;20031;-78
2022/11/17 10:42:23;;;;;;;;;;;13.50;99.90;;;;;;5050089;28;20029;-77
2022/11/17 10:44:51;;;;;;;14.32;9.95;;;13.30;99.90;;;;;;5049378;28;19947;-77
2022/11/17 10:47:26;;;;;;;12.52;9.65;;;13.10;99.90;;;;;;5068027;28;20126;-78
2022/11/17 10:50:22;;;;;;;11.48;9.25;;;12.90;99.90;;;;;;5049975;28;20443;-78
2022/11/17 10:52:50;;;;;;;12.77;10.63;;;12.70;99.90;;;;;;5047925;28;20525;-78
2022/11/17 10:55:20;;;;;;;17.10;11.73;;;12.50;99.90;;;;;;5050259;28;20739;-76
2022/11/17 10:58:32;;;;;;;14.63;10.32;;;12.40;99.90;;;;;;5049493;28;20540;-77
2022/11/17 11:01:01;;;;;;;13.30;9.63;;;12.40;99.90;;;;;;5047090;28;20107;-75
2022/11/17 11:03:34;;;;;;;12.60;9.88;;;12.30;99.90;;;;;;5049547;28;20465;-76
2022/11/17 11:06:00;;;;;;;13.30;8.73;;;12.30;99.90;;;;;;5067295;28;20770;-78
2022/11/17 11:08:37;;;;;;;;;;;12.30;99.90;;;;;;5049916;28;20074;-77
2022/11/17 11:11:11;;;;;;;11.07;8.43;;;12.40;99.90;;;;;;5067551;28;19918;-77
2022/11/17 11:13:47;;;;;;;12.40;7.57;;;12.50;99.90;;;;;;5066572;28;20041;-77
2022/11/17 11:16:13;;;;;;;11.25;7.30;;;12.60;99.90;;;;;;5067029;28;20025;-78
2022/11/17 11:18:38;;;;;;;;;;;12.70;99.90;;;;;;5049600;28;20043;-78
2022/11/17 11:21:27;;;;;;;15.20;8.13;;;12.70;99.90;;;;;;5049108;28;19908;-77
2022/11/17 11:24:22;;;;;;;15.93;8.80;;;12.70;99.90;;;;;;5048235;28;20595;-77
2022/11/17 11:27:00;;;;;;;11.63;9.10;;;12.80;99.90;;;;;;5066614;28;20025;-78
2022/11/17 11:29:44;;;;;;;13.55;10.23;;;12.90;99.90;;;;;;5048666;28;20024;-77
2022/11/17 11:32:30;;;;;;;15.77;11.13;;;12.90;99.90;;;;;;5049056;28;20044;-76
2022/11/17 11:35:15;;;;;;;14.27;10.70;;;12.90;99.90;;;;;;5068468;28;20081;-77
2022/11/17 11:38:22;;;;;;;16.33;10.63;;;12.90;99.90;;;;;;5048140;28;20028;-77
2022/11/17 11:41:15;;;;;;;13.13;10.18;;;13.00;99.90;;;;;;5038609;28;20043;-76
2022/11/17 11:43:54;;;;;;;15.35;10.30;;;13.10;99.90;;;;;;5048886;28;20036;-77
2022/11/17 11:46:25;;;;;;;13.57;10.18;;;13.10;99.90;;;;;;5048824;28;20630;-77
2022/11/17 11:48:54;;;;;;;11.32;9.73;;;12.90;99.90;;;;;;5048406;28;20025;-77
2022/11/17 11:51:35;;;;;;;12.77;10.38;;;12.60;99.90;;;;;;5066379;28;20027;-76
2022/11/17 11:54:25;;;;;;;14.20;10.32;;;12.40;99.90;;;;;;5048567;28;20040;-77
2022/11/17 11:56:51;;;;;;;12.57;9.45;;;12.10;99.90;;;;;;5048274;28;20396;-77
2022/11/17 11:59:16;;;;;;;;;;;11.90;99.90;;;;;;5048720;28;20508;-77
2022/11/17 12:02:08;;;;;;;15.32;9.73;;;11.60;99.90;;;;;;5066680;28;19908;-77
2022/11/17 12:04:42;;;;;;;12.25;8.20;;;11.60;99.90;;;;;;5055555;28;20041;-75
2022/11/17 12:07:52;;;;;;;12.13;8.98;;;11.50;99.90;;;;;;5065793;28;20024;-78
2022/11/17 12:10:24;;;;;;;13.13;8.70;;;11.50;99.90;;;;;;5066175;28;20035;-77
2022/11/17 12:12:50;;;;;;;10.70;7.05;;;11.40;99.90;;;;;;5047823;28;20115;-77
2022/11/17 12:15:18;;;;;;;;;;;11.40;99.90;;;;;;5066826;28;20544;-77
2022/11/17 12:18:02;;;;;;;12.68;9.25;;;11.40;99.90;;;;;;5048098;28;19934;-77
2022/11/17 12:20:37;;;;;;;16.55;10.43;;;11.50;99.90;;;;;;5066012;28;20574;-76
2022/11/17 12:23:41;;;;;;;13.13;9.90;;;11.50;99.90;;;;;;5048329;28;20471;-77
2022/11/17 12:26:37;;;;;;;15.55;8.43;;;11.50;99.90;;;;;;5021384;28;20060;-77
2022/11/17 12:29:27;;;;;;;12.77;9.65;;;11.50;99.90;;;;;;5047546;28;20040;-76
2022/11/17 12:31:54;;;;;;;14.70;8.73;;;11.60;99.90;;;;;;5037912;28;20079;-77
2022/11/17 12:34:23;;;;;;;13.38;8.93;;;11.60;99.90;;;;;;5048263;28;20539;-76
2022/11/17 12:37:11;;;;;;;12.38;8.57;;;11.60;99.90;;;;;;5047152;28;20031;-77
2022/11/17 12:40:04;;;;;;;13.63;9.73;;;11.50;99.90;;;;;;5047697;28;20060;-76
2022/11/17 12:42:32;;;;;;;14.98;8.15;;;11.40;99.90;;;;;;5050602;28;20119;-77
2022/11/17 12:45:02;;;;;;;12.73;8.25;;;11.40;99.90;;;;;;5069997;28;20637;-77
2022/11/17 12:47:33;;;;;;;11.20;8.40;;;11.20;99.90;;;;;;5052045;28;21142;-77
2022/11/17 12:50:17;;;;;;;10.90;8.13;;;11.10;99.90;;;;;;5051682;28;20150;-77
2022/11/17 12:53:12;;;;;;;10.38;6.82;;;11.10;99.90;;;;;;5051915;28;20564;-76
2022/11/17 12:56:06;;;;;;;10.23;7.90;;;11.00;99.90;;;;;;5061601;28;20040;-76
2022/11/17 12:58:47;;;;;;;9.30;6.50;;;11.10;99.90;;;;;;5069613;28;20256;-77
2022/11/17 13:01:54;;;;;;;8.25;6.55;;;11.10;99.90;;;;;;5051859;28;20078;-77
2022/11/17 13:04:30;;;;;;;12.95;8.70;;;11.00;99.90;;;;;;5051196;28;20081;-77
2022/11/17 13:07:05;;;;;;;11.43;8.18;;;11.10;99.90;;;;;;5051713;28;20029;-76
2022/11/17 13:09:33;;;;;;;12.50;8.95;;;11.10;99.90;;;;;;5051449;28;20039;-77
2022/11/17 13:12:00;;;;;;;10.48;8.18;;;11.10;99.90;;;;;;5051391;28;20025;-76
2022/11/17 13:14:26;;;;;;;11.77;8.57;;;10.90;99.90;;;;;;5069548;28;20035;-76
2022/11/17 13:16:52;;;;;;;;;;;11.00;99.90;;;;;;5052155;28;20016;-76
2022/11/17 13:19:40;;;;;;;11.68;9.23;;;10.90;99.90;;;;;;5051083;28;20361;-77
2022/11/17 13:22:12;;;;;;;15.35;9.95;;;10.80;99.90;;;;;;5069830;28;20048;-76
2022/11/17 13:24:40;;;;;;;13.07;9.80;;;10.70;99.90;;;;;;5051473;28;20033;-77
2022/11/17 13:27:26;;;;;;;18.17;10.68;;;10.80;99.90;;;;;;5069380;28;20032;-76
2022/11/17 13:30:10;;;;;;;14.15;10.48;;;10.80;99.90;;;;;;5048360;28;20059;-77
2022/11/17 13:32:39;;;;;;;14.30;10.68;;;10.80;99.90;;;;;;5051335;28;20120;-76
2022/11/17 13:35:21;;;;;;;16.67;11.35;;;10.90;99.90;;;;;;5050738;28;20082;-76
2022/11/17 13:38:19;;;;;;;17.70;11.63;;;11.00;99.90;;;;;;5069441;28;20099;-77
2022/11/17 13:40:47;;;;;;;13.68;10.30;;;11.00;99.90;;;;;;5069467;28;20466;-76
2022/11/17 13:43:17;;;;;;;18.80;10.55;;;11.00;99.90;;;;;;5069102;28;20045;-77